Terminal Aerodrome Forecast
Issued by NWS Detroit/Pontiac, MI

Home | Current Version | Previous Version | Text Only | Print | Product List | Glossary On
Versions: 1 2 3 4 5 6 7 8 9 10 11 12 13
000
FTUS43 KDTX 251720
TAFFNT
TAF
KFNT 251720Z 2518/2618 17005KT P6SM BKN050
     FM260200 VRB03KT P6SM SCT250
     FM261000 00000KT 3SM BR SKC
     FM261300 20005KT P6SM SKC=

USA.gov is the U.S. government's official web portal to all federal, state and local government web resources and services.